createdAt,value
2023-09-12T00:00:01.356Z,5.83
2023-09-12T00:05:04.151Z,5.97
2023-09-12T00:10:07.091Z,6.83
2023-09-12T00:15:10.116Z,6.33
2023-09-12T00:20:12.527Z,6.43
2023-09-12T00:25:14.846Z,6.50
2023-09-12T00:30:17.319Z,8.03
2023-09-12T00:35:19.631Z,8.20
2023-09-12T00:40:21.951Z,7.80
2023-09-12T00:45:24.303Z,8.00
2023-09-12T00:50:27.808Z,9.57
2023-09-12T00:55:33.763Z,11.00
2023-09-12T01:00:36.273Z,17.53
2023-09-12T01:05:39.208Z,28.47
2023-09-12T01:10:47.163Z,38.47
2023-09-12T01:15:49.382Z,38.33
2023-09-12T01:21:30.050Z,38.00
2023-09-12T01:27:22.987Z,30.37
2023-09-12T01:32:25.443Z,29.87
2023-09-12T01:37:28.234Z,27.37
2023-09-12T01:42:38.636Z,29.90
2023-09-12T01:47:43.061Z,27.80
2023-09-12T01:52:46.344Z,25.70
2023-09-12T01:57:48.926Z,23.50
2023-09-12T02:02:51.934Z,23.67
2023-09-12T02:07:54.263Z,25.57
2023-09-12T02:12:56.610Z,37.10
2023-09-12T02:17:58.824Z,41.53
2023-09-12T02:23:01.036Z,40.70
2023-09-12T02:28:03.521Z,42.60
2023-09-12T02:33:06.019Z,52.17
2023-09-12T02:38:09.222Z,59.23
2023-09-12T02:43:11.581Z,57.50
2023-09-12T02:48:13.918Z,49.40
2023-09-12T02:53:16.193Z,38.17
2023-09-12T02:58:18.549Z,40.33
2023-09-12T03:03:21.190Z,34.70
2023-09-12T03:08:23.622Z,26.83
2023-09-12T03:13:27.410Z,20.97
2023-09-12T03:18:30.172Z,20.90
2023-09-12T03:23:33.255Z,21.77
2023-09-12T03:28:36.238Z,30.20
2023-09-12T03:33:39.742Z,47.20
2023-09-12T03:38:42.255Z,53.60
2023-09-12T03:43:44.811Z,43.23
2023-09-12T03:48:47.440Z,31.20
2023-09-12T03:53:51.192Z,29.33
2023-09-12T03:58:55.073Z,27.20
2023-09-12T04:03:58.992Z,25.27
2023-09-12T04:09:02.755Z,29.60
2023-09-12T04:14:05.089Z,39.27
2023-09-12T04:19:07.695Z,81.43
2023-09-12T04:24:10.427Z,104.20
2023-09-12T04:29:12.897Z,105.70
2023-09-12T04:34:15.291Z,82.20
2023-09-12T04:39:17.598Z,67.20
2023-09-12T04:44:20.098Z,60.10
2023-09-12T04:49:22.897Z,59.47
2023-09-12T04:54:25.238Z,54.00
2023-09-12T04:59:27.580Z,59.30
2023-09-12T05:04:30.004Z,56.80
2023-09-12T05:09:32.502Z,53.97
2023-09-12T05:14:35.037Z,52.77
2023-09-12T05:19:37.438Z,53.60
2023-09-12T05:24:39.753Z,51.37
2023-09-12T05:29:42.140Z,53.23
2023-09-12T05:34:46.302Z,55.93
2023-09-12T05:39:48.952Z,58.63
2023-09-12T05:44:54.528Z,60.37
2023-09-12T05:49:57.674Z,62.70
2023-09-12T05:54:59.999Z,57.77
2023-09-12T06:00:04.892Z,57.07
2023-09-12T06:05:14.854Z,51.73
2023-09-12T06:10:17.231Z,43.50
2023-09-12T06:15:19.582Z,41.93
2023-09-12T06:20:23.024Z,31.63
2023-09-12T06:25:26.091Z,24.00
2023-09-12T06:30:28.549Z,20.23
2023-09-12T06:35:30.778Z,12.87
2023-09-12T06:40:33.020Z,14.50
2023-09-12T06:45:37.935Z,13.00
2023-09-12T06:50:40.290Z,15.20
2023-09-12T06:55:42.568Z,18.37
2023-09-12T07:00:45.056Z,14.07
2023-09-12T07:05:47.408Z,13.10
2023-09-12T07:10:49.701Z,11.70
2023-09-12T07:15:52.944Z,9.43
2023-09-12T07:21:05.869Z,9.20
2023-09-12T07:26:17.389Z,9.00
2023-09-12T07:31:19.768Z,8.23
2023-09-12T07:36:22.157Z,7.67
2023-09-12T07:41:24.404Z,6.60
2023-09-12T07:46:26.761Z,6.13
2023-09-12T07:51:29.075Z,4.70
2023-09-12T07:56:31.393Z,5.80
2023-09-12T08:01:33.693Z,5.13
2023-09-12T08:06:47.702Z,5.27
2023-09-12T08:11:54.274Z,5.70
2023-09-12T08:16:56.594Z,5.80
2023-09-12T08:21:58.853Z,5.37
2023-09-12T08:27:01.865Z,4.70
2023-09-12T08:32:04.718Z,5.40
2023-09-12T08:37:07.158Z,5.00
2023-09-12T08:42:15.328Z,4.90
2023-09-12T08:47:21.132Z,4.30
2023-09-12T08:52:23.759Z,4.93
2023-09-12T08:57:26.772Z,4.93
2023-09-12T09:02:29.528Z,4.87
2023-09-12T09:07:40.019Z,4.13
2023-09-12T09:12:44.660Z,5.60
2023-09-12T09:17:48.116Z,5.10
2023-09-12T09:23:16.936Z,4.70
2023-09-12T09:28:21.926Z,4.80
2023-09-12T09:33:25.249Z,6.13
2023-09-12T09:38:27.602Z,5.47
2023-09-12T09:43:33.284Z,5.37
2023-09-12T09:48:37.062Z,5.80
2023-09-12T09:53:42.092Z,4.80
2023-09-12T09:58:51.352Z,5.30
2023-09-12T10:03:54.838Z,4.67
2023-09-12T10:09:00.227Z,5.30
2023-09-12T10:14:05.694Z,4.57
2023-09-12T10:19:20.817Z,4.77
2023-09-12T10:24:24.793Z,4.97
2023-09-12T10:29:27.152Z,4.23
2023-09-12T10:34:31.800Z,4.67
2023-09-12T10:39:35.986Z,4.43
2023-09-12T10:44:38.546Z,4.93
2023-09-12T10:49:41.115Z,4.70
2023-09-12T11:00:05.404Z,4.57
2023-09-12T11:05:29.090Z,5.60
2023-09-12T11:10:33.343Z,5.27
2023-09-12T11:15:36.027Z,5.20
2023-09-12T11:21:04.751Z,5.03
2023-09-12T11:26:09.275Z,5.10
2023-09-12T11:31:12.022Z,5.30
2023-09-12T11:36:16.344Z,4.70
2023-09-12T11:41:41.076Z,5.20
2023-09-12T11:46:44.460Z,4.83
2023-09-12T11:51:56.541Z,5.73
2023-09-12T11:57:00.898Z,4.80
2023-09-12T12:02:09.151Z,5.03
2023-09-12T12:07:12.419Z,4.47
2023-09-12T12:12:16.260Z,5.10
2023-09-12T12:17:18.752Z,5.47
2023-09-12T12:22:21.180Z,4.57
2023-09-12T12:27:24.123Z,4.90
2023-09-12T12:32:26.868Z,5.00
2023-09-12T12:37:32.716Z,4.43
2023-09-12T12:42:50.508Z,5.10
2023-09-12T12:48:01.936Z,4.93
2023-09-12T12:53:04.495Z,5.23
2023-09-12T12:58:06.831Z,3.73
2023-09-12T13:03:09.228Z,2.60
2023-09-12T13:08:11.520Z,2.80
2023-09-12T13:13:13.970Z,3.93
2023-09-12T13:18:16.295Z,3.97
2023-09-12T13:23:18.969Z,3.97
2023-09-12T13:28:21.442Z,4.30
2023-09-12T13:33:23.954Z,3.93
2023-09-12T13:38:26.643Z,4.23
2023-09-12T13:43:29.678Z,4.43
2023-09-12T13:48:32.103Z,4.43
2023-09-12T13:53:34.846Z,4.30
2023-09-12T13:58:42.312Z,3.93
2023-09-12T14:03:51.078Z,4.10
2023-09-12T14:08:55.125Z,4.30
2023-09-12T14:14:12.288Z,4.60
2023-09-12T14:19:17.664Z,4.10
2023-09-12T14:24:21.608Z,4.60
2023-09-12T14:29:25.514Z,4.70
2023-09-12T14:34:29.296Z,4.60
2023-09-12T14:39:31.590Z,4.43
2023-09-12T14:44:34.348Z,4.80
2023-09-12T14:49:46.006Z,4.13
2023-09-12T14:54:50.500Z,4.07
2023-09-12T14:59:53.165Z,4.33
2023-09-12T15:04:55.469Z,4.43
2023-09-12T15:09:58.666Z,4.30
2023-09-12T15:15:01.100Z,4.30
2023-09-12T15:20:06.404Z,4.20
2023-09-12T15:25:09.057Z,4.57
2023-09-12T15:30:12.982Z,4.67
2023-09-12T15:35:15.282Z,4.73
2023-09-12T15:40:17.808Z,4.53
2023-09-12T15:45:21.240Z,5.33
2023-09-12T15:50:24.522Z,4.60
2023-09-12T15:55:26.716Z,5.37
2023-09-12T16:00:29.024Z,4.30
2023-09-12T16:05:31.465Z,4.33
2023-09-12T16:10:33.728Z,4.87
2023-09-12T16:15:36.125Z,5.20
2023-09-12T16:20:38.541Z,4.20
2023-09-12T16:25:40.853Z,4.50
2023-09-12T16:30:45.448Z,2.80
2023-09-12T16:35:48.413Z,3.20
2023-09-12T16:40:51.245Z,2.10
2023-09-12T16:45:53.640Z,2.27
2023-09-12T16:50:55.932Z,2.70
2023-09-12T16:56:00.336Z,3.03
2023-09-12T17:01:02.810Z,3.00
2023-09-12T17:06:05.462Z,3.30
2023-09-12T17:11:07.917Z,3.77
2023-09-12T17:16:10.383Z,3.40
2023-09-12T17:21:12.925Z,3.63
2023-09-12T17:26:15.160Z,4.33
2023-09-12T17:31:17.549Z,4.07
2023-09-12T17:36:19.792Z,4.73
2023-09-12T17:41:22.176Z,4.27
2023-09-12T17:46:25.154Z,4.50
2023-09-12T17:51:27.621Z,5.10
2023-09-12T17:56:29.946Z,5.63
2023-09-12T18:01:32.281Z,4.70
2023-09-12T18:06:36.308Z,4.83
2023-09-12T18:11:38.700Z,4.97
2023-09-12T18:16:41.245Z,4.43
2023-09-12T18:21:43.695Z,4.47
2023-09-12T18:26:47.137Z,4.77
2023-09-12T18:31:49.933Z,4.60
2023-09-12T18:36:54.416Z,5.20
2023-09-12T18:41:56.743Z,5.73
2023-09-12T18:46:59.403Z,5.83
2023-09-12T18:52:01.809Z,6.13
2023-09-12T18:57:12.069Z,6.20
2023-09-12T19:02:15.207Z,6.40
2023-09-12T19:07:17.512Z,5.67
2023-09-12T19:12:19.756Z,6.00
2023-09-12T19:17:22.010Z,6.40
2023-09-12T19:22:24.224Z,6.47
2023-09-12T19:27:26.387Z,7.73
2023-09-12T19:32:29.452Z,6.50
2023-09-12T19:37:31.664Z,6.87
2023-09-12T19:42:34.148Z,6.17
2023-09-12T19:47:50.049Z,6.40
2023-09-12T19:52:57.635Z,6.60
2023-09-12T19:57:59.994Z,6.40
2023-09-12T20:03:02.466Z,6.80
2023-09-12T20:08:08.551Z,6.70
2023-09-12T20:13:10.898Z,6.20
2023-09-12T20:18:15.252Z,7.13
2023-09-12T20:23:17.525Z,6.83
2023-09-12T20:28:19.867Z,7.03
2023-09-12T20:33:22.237Z,7.80
2023-09-12T20:38:24.532Z,5.90
2023-09-12T20:43:27.099Z,6.90
2023-09-12T20:48:29.397Z,6.20
2023-09-12T20:53:31.645Z,6.50
2023-09-12T20:58:33.850Z,7.10
2023-09-12T21:03:36.310Z,6.33
2023-09-12T21:08:38.946Z,7.10
2023-09-12T21:13:41.210Z,6.40
2023-09-12T21:18:45.360Z,7.20
2023-09-12T21:23:47.681Z,5.77
2023-09-12T21:28:53.429Z,5.80
2023-09-12T21:33:56.085Z,6.60
2023-09-12T21:38:58.459Z,6.03
2023-09-12T21:44:00.645Z,6.00
2023-09-12T21:49:05.827Z,6.40
2023-09-12T21:54:09.681Z,8.33
2023-09-12T21:59:11.906Z,6.67
2023-09-12T22:04:14.993Z,8.50
2023-09-12T22:09:17.256Z,7.20
2023-09-12T22:14:19.465Z,7.50
2023-09-12T22:19:21.820Z,6.30
2023-09-12T22:24:24.098Z,5.37
2023-09-12T22:29:26.708Z,4.90
2023-09-12T22:34:29.002Z,5.80
2023-09-12T22:39:31.402Z,5.67
2023-09-12T22:44:33.713Z,5.40
2023-09-12T22:49:36.013Z,5.10
2023-09-12T22:54:38.294Z,5.37
2023-09-12T22:59:40.775Z,4.43
2023-09-12T23:04:43.193Z,4.93
2023-09-12T23:09:45.537Z,4.60
2023-09-12T23:14:48.043Z,5.17
2023-09-12T23:19:50.435Z,4.90
2023-09-12T23:24:53.234Z,4.60
2023-09-12T23:29:56.551Z,3.93
2023-09-12T23:34:58.974Z,4.20
2023-09-12T23:40:01.442Z,4.40
2023-09-12T23:45:04.524Z,3.93
2023-09-12T23:50:07.912Z,5.13
2023-09-12T23:55:11.065Z,3.70
